Orbital elements of COSMOS 252 DEB
| Launched | 31 October 1968 |
| Flight ended | – |
| Launch site | Tyuratam Missile and Space Center, Kazakhstan (Also known as Baikonur Cosmodrome) |
| Owner | Commonwealth of Independent States (former USSR) |
| NORAD ID | 3784 |
| Date fetched |
Epoch osculation |
Inc. [°] |
Ecc. | RA asc node [hr] |
Arg Peri. [°] |
Mean anom [°] |
Mean motion [rev/day] |
Abs. mag |
| Date fetched |
Epoch osculation |
Inc. [°] |
Ecc. | RA asc node [hr] |
Arg Peri. [°] |
Mean anom [°] |
Mean motion [rev/day] |
Abs. mag |
| 2026 May 05 17:57 | 2026 May 04 10:19:38 | 62.2390 | 0.06353 | 8.5822 | 54.5215 | 311.3398 | 13.36984 | – |
| 2026 May 04 17:57 | 2026 Apr 30 11:11:29 | 62.2388 | 0.06351 | 9.2836 | 53.6080 | 311.3398 | 13.36984 | – |
| 2026 May 03 17:57 | 2026 Apr 30 11:11:29 | 62.2388 | 0.06351 | 9.2836 | 53.6080 | 311.3398 | 13.36984 | – |
| 2026 May 02 17:57 | 2026 Apr 30 11:11:29 | 62.2388 | 0.06351 | 9.2836 | 53.6080 | 311.3398 | 13.36984 | – |
| 2026 May 01 17:56 | 2026 Apr 30 11:11:29 | 62.2388 | 0.06351 | 9.2836 | 53.6080 | 311.3398 | 13.36984 | – |
| 2026 Apr 30 17:56 | 2026 Apr 30 11:11:29 | 62.2388 | 0.06351 | 9.2836 | 53.6080 | 311.3398 | 13.36984 | – |
| 2026 Apr 29 17:57 | 2026 Apr 24 04:24:24 | 62.2392 | 0.06350 | 10.3952 | 52.1680 | 311.3398 | 13.36984 | – |
| 2026 Apr 28 17:56 | 2026 Apr 24 04:24:24 | 62.2392 | 0.06350 | 10.3952 | 52.1680 | 311.3398 | 13.36984 | – |
| 2026 Apr 27 17:58 | 2026 Apr 24 04:24:24 | 62.2392 | 0.06350 | 10.3952 | 52.1680 | 311.3398 | 13.36984 | – |
| 2026 Apr 26 17:58 | 2026 Apr 24 04:24:24 | 62.2392 | 0.06350 | 10.3952 | 52.1680 | 311.3398 | 13.36984 | – |
| 2026 Apr 25 17:58 | 2026 Apr 24 04:24:24 | 62.2392 | 0.06350 | 10.3952 | 52.1680 | 311.3398 | 13.36984 | – |
| 2026 Apr 24 17:59 | 2026 Apr 24 04:24:24 | 62.2392 | 0.06350 | 10.3952 | 52.1680 | 311.3398 | 13.36984 | – |
| 2026 Apr 23 17:57 | 2026 Apr 19 04:08:11 | 62.2400 | 0.06348 | 11.2819 | 51.0254 | 311.3398 | 13.36984 | – |
| 2026 Apr 22 17:57 | 2026 Apr 19 04:08:11 | 62.2400 | 0.06348 | 11.2819 | 51.0254 | 311.3398 | 13.36984 | – |
| 2026 Apr 21 17:57 | 2026 Apr 19 04:08:11 | 62.2400 | 0.06348 | 11.2819 | 51.0254 | 311.3398 | 13.36984 | – |
| 2026 Apr 20 17:57 | 2026 Apr 19 04:08:11 | 62.2400 | 0.06348 | 11.2819 | 51.0254 | 311.3398 | 13.36984 | – |
| 2026 Apr 19 17:58 | 2026 Apr 19 04:08:11 | 62.2400 | 0.06348 | 11.2819 | 51.0254 | 311.3398 | 13.36984 | – |
| 2026 Apr 18 17:56 | 2026 Apr 12 05:11:34 | 62.2408 | 0.06348 | 12.5125 | 49.4455 | 311.3398 | 13.36984 | – |
| 2026 Apr 16 17:57 | 2026 Apr 12 05:11:34 | 62.2408 | 0.06348 | 12.5125 | 49.4455 | 311.3398 | 13.36984 | – |
| 2026 Apr 14 17:57 | 2026 Apr 12 05:11:34 | 62.2408 | 0.06348 | 12.5125 | 49.4455 | 311.3398 | 13.36984 | – |
| 2026 Apr 13 17:57 | 2026 Apr 12 05:11:34 | 62.2408 | 0.06348 | 12.5125 | 49.4455 | 311.3398 | 13.36984 | – |
| 2026 Apr 12 17:57 | 2026 Apr 08 06:03:09 | 62.2411 | 0.06347 | 13.2139 | 48.5439 | 311.3398 | 13.36984 | – |
| 2026 Apr 11 17:57 | 2026 Apr 08 06:03:09 | 62.2411 | 0.06347 | 13.2139 | 48.5439 | 311.3398 | 13.36984 | – |
| 2026 Apr 10 17:58 | 2026 Apr 08 06:03:09 | 62.2411 | 0.06347 | 13.2139 | 48.5439 | 311.3398 | 13.36984 | – |
| 2026 Apr 09 18:01 | 2026 Apr 08 06:03:09 | 62.2411 | 0.06347 | 13.2139 | 48.5439 | 311.3398 | 13.36984 | – |
| 2026 Apr 08 17:57 | 2026 Apr 08 06:03:09 | 62.2411 | 0.06347 | 13.2139 | 48.5439 | 311.3398 | 13.36984 | – |